San Antonio, Valles Caldera, New Mexico Weather observations

Data are for 10 minute period ending at time listed.
 Day   Time   Solar   Ave.   Ave.  Ave.  Vector  Max.   Baro.   Total    
  of    of     Rad.   Air    Rel.  Wind   Wind   Wind  Press.  Precip.   
Year   Day            Temp.  Hum.  Speed  Dir.   Gust                    
2016   (MST)  Kw/m2    F      %     mph   deg.    mph    mb.     in.     
-------------------------------------------------------------------------
  38    9:30   0.30   39.1    30    9.2   302    14.9   99999.0    0.00 
  38    9:40   0.33   40.3    29    8.9   306    17.3   99999.0    0.00 
  38    9:50   0.39   41.3    28    8.7   302    14.9   99999.0    0.00 
  38   10:00   0.45   42.3    27    9.1   303    16.7   99999.0    0.00 
  38   10:10   0.48   43.6    26    8.6   300    16.7   99999.0    0.00 
  38   10:20   0.45   43.4    27   10.1   295    21.5   99999.0    0.00 
  38   10:30   0.48   42.8    27    9.3   299    16.7   99999.0    0.00 
  38   10:40   0.65   45.1    26    9.0   303    14.9   99999.0    0.00 
  38   10:50   0.62   45.7    25   10.0   295    16.1   99999.0    0.00 
  38   11:00   0.55   45.7    25    8.4   306    14.3   99999.0    0.00 
  38   11:10   0.58   46.9    24    6.7   287    13.1   99999.0    0.00 
  38   11:20   0.63   47.6    23    8.4   309    16.7   99999.0    0.00 
  38   11:30   0.58   46.3    24   11.3   294    17.9   99999.0    0.00 
  38   11:40   0.51   45.3    25   10.2   297    18.5   99999.0    0.00 
  38   11:50   0.60   45.9    25   11.1   291    18.5   99999.0    0.00 
  38   12:00   0.59   45.7    24   11.9   293    19.1   99999.0    0.00 
  38   12:10   0.67   46.3    24   10.9   295    19.7   99999.0    0.00 
  38   12:20   0.66   47.0    24   10.7   286    16.1   99999.0    0.00 
  38   12:30   0.62   47.4    24    9.9   284    14.9   99999.0    0.00 
  38   12:40   0.70   47.2    25   11.0   280    16.1   99999.0    0.00 
  38   12:50   0.69   46.7    25   12.0   283    17.3   99999.0    0.00 
  38   13:00   0.71   47.8    23   10.3   284    16.7   99999.0    0.00 
  38   13:10   0.64   46.6    28    8.3   262    11.9   99999.0    0.00 
  38   13:20   0.67   43.6    34    8.6   263    11.9   99999.0    0.00 
  38   13:30   0.65   45.2    29    9.5   266    13.1   99999.0    0.00 
  38   13:40   0.65   48.5    24   11.2   282    16.1   99999.0    0.00 
  38   13:50   0.63   50.2    22   12.3   288    18.5   99999.0    0.00 
  38   14:00   0.62   51.3    21    9.8   294    14.3   99999.0    0.00 
  38   14:10   0.60   52.2    20   10.4   294    16.7   99999.0    0.00 
  38   14:20   0.58   51.8    21    9.7   289    17.3   99999.0    0.00 
  38   14:30   0.56   52.5    21    8.7   292    16.7   99999.0    0.00 
  38   14:40   0.54   51.5    20   10.5   296    17.9   99999.0    0.00 
  38   14:50   0.50   51.3    21    9.2   288    17.3   99999.0    0.00 
  38   15:00   0.49   50.6    21   10.7   289    17.9   99999.0    0.00 
  38   15:10   0.47   49.4    22   12.2   287    20.3   99999.0    0.00 
  38   15:20   0.44   48.5    24   10.8   276    15.5   99999.0    0.00 
  38   15:30   0.41   48.3    22   11.8   287    19.1   99999.0    0.00 
  38   15:40   0.38   49.1    22   11.3   286    17.3   99999.0    0.00 
  38   15:50   0.35   48.8    24   10.5   284    14.9   99999.0    0.00 
  38   16:00   0.32   48.8    24   10.6   286    17.3   99999.0    0.00 
  38   16:10   0.29   48.7    24    8.8   285    16.1   99999.0    0.00 
  38   16:20   0.26   49.4    24    7.3   282    12.5   99999.0    0.00 
  38   16:30   0.23   48.7    25    7.4   282    11.3   99999.0    0.00 
  38   16:40   0.19   47.2    26    6.8   279    10.8   99999.0    0.00 
  38   16:50   0.16   45.8    28   10.0   276    16.1   99999.0    0.00 
  38   17:00   0.13   44.5    30    8.5   282    11.9   99999.0    0.00 
  38   17:10   0.09   44.1    30    6.8   286    11.3   99999.0    0.00 
  38   17:20   0.05   43.3    30    5.4   288     9.0   99999.0    0.00 
  38   17:30   0.03   42.9    30    4.6   281     9.6   99999.0    0.00 
  38   17:40   0.01   37.4    38    2.4   124     6.0   99999.0    0.00 
  38   17:50   0.00   32.4    46    4.8   136     6.6   99999.0    0.00 
  38   18:00   0.00   31.3    47    3.1   200     6.6   99999.0    0.00 
  38   18:10   0.00   30.9    49    2.0    17     4.8   99999.0    0.00 
  38   18:20   0.00   30.9    50    2.2    16     4.2   99999.0    0.00 
  38   18:30   0.00   30.9    50    3.4    14     6.0   99999.0    0.00 
  38   18:40   0.00   31.1    51    3.3    15     4.8   99999.0    0.00 
  38   18:50   0.00   30.3    55    2.8    25     4.8   99999.0    0.00 
  38   19:00   0.00   29.0    58    1.7    28     4.2   99999.0    0.00 
  38   19:10   0.00   28.2    58    0.1    43     1.2   99999.0    0.00 
  38   19:20   0.00   26.4    60    1.0   116     3.6   99999.0    0.00 
  38   19:30   0.00   25.4    64    1.8    11     3.6   99999.0    0.00 
  38   19:40   0.00   25.6    65    1.8   352     3.6   99999.0    0.00 
  38   19:50   0.00   24.9    66    1.3   330     3.0   99999.0    0.00 
  38   20:00   0.00   24.5    68    2.2    26     3.6   99999.0    0.00 
  38   20:10   0.00   23.4    66    1.5    26     4.2   99999.0    0.00 
  38   20:20   0.00   20.8    72    1.1    64     3.0   99999.0    0.00 
  38   20:30   0.00   21.9    70    1.1    72     3.0   99999.0    0.00 
  38   20:40   0.00   21.5    71    3.2   300     4.8   99999.0    0.00 
  38   20:50   0.00   20.9    75    0.9   318     3.0   99999.0    0.00 
  38   21:00   0.00   19.9    72    1.2   119     3.6   99999.0    0.00 
  38   21:10   0.00   20.1    74    1.5   355     3.0   99999.0    0.00 
  38   21:20   0.00   19.1    74    0.9   282     2.4   99999.0    0.00 
  38   21:30   0.00   18.4    76    1.3   127     3.6   99999.0    0.00 
  38   21:40   0.00   17.9    76    0.7    76     2.4   99999.0    0.00 
  38   21:50   0.00   17.6    78    1.3   338     4.2   99999.0    0.00 
  38   22:00   0.00   18.1    80    1.5    13     3.6   99999.0    0.00 
  38   22:10   0.00   15.9    73    1.6    70     3.6   99999.0    0.00 
  38   22:20   0.00   14.3    84    1.0    37     3.0   99999.0    0.00 
  38   22:30   0.00   14.9    81    1.4    34     3.6   99999.0    0.00 
  38   22:40   0.00   14.5    84    0.8   346     3.0   99999.0    0.00 
  38   22:50   0.00   14.3    84    0.8   248     3.6   99999.0    0.00 
  38   23:00   0.00   12.9    82    0.9    76     3.0   99999.0    0.00 
  38   23:10   0.00   12.8    84    0.7    25     1.8   99999.0    0.00 
  38   23:20   0.00   13.4    85    0.4    48     2.4   99999.0    0.00 
  38   23:30   0.00   13.3    82    0.9   131     3.0   99999.0    0.00 
  38   23:40   0.00   11.3    86    1.7    25     3.0   99999.0    0.00 
  38   23:50   0.00   11.3    86    1.8   227     3.6   99999.0    0.00 
  39    0:00   0.00   11.1    87    0.9   119     2.4   99999.0    0.00 
  39    0:10   0.00   10.1    85    1.6    29     3.6   99999.0    0.00 
  39    0:20   0.00    9.2    88    1.3   248     4.8   99999.0    0.00 
  39    0:30   0.00    8.4    88    2.0    93     4.2   99999.0    0.00 
  39    0:40   0.00    8.7    91    1.2   339     2.4   99999.0    0.00 
  39    0:50   0.00    9.5    90    1.1   100     3.0   99999.0    0.00 
  39    1:00   0.00    8.3    88    0.8   317     1.8   99999.0    0.00 
  39    1:10   0.00    7.5    88    0.7   283     3.0   99999.0    0.00 
  39    1:20   0.00    6.8    88    1.7   314     3.6   99999.0    0.00 
  39    1:30   0.00    6.1    88    2.3   340     4.2   99999.0    0.00 
  39    1:40   0.00    6.6    91    0.7    93     2.4   99999.0    0.00 
  39    1:50   0.00    6.6    90    0.4   303     1.8   99999.0    0.00 
  39    2:00   0.00    6.5    91    0.8    83     2.4   99999.0    0.00 
  39    2:10   0.00    6.4    89    1.0   126     3.0   99999.0    0.00 
  39    2:20   0.00    5.0    90    0.6   109     1.8   99999.0    0.00 
  39    2:30   0.00    5.9    92    0.0   138     1.2   99999.0    0.00 
  39    2:40   0.00    6.1    91    0.1    78     1.2   99999.0    0.00 
  39    2:50   0.00    6.3    90    1.0   289     2.4   99999.0    0.00 
  39    3:00   0.00    5.0    88    0.4   309     1.8   99999.0    0.00 
  39    3:10   0.00    4.8    90    0.9    98     3.0   99999.0    0.00 
  39    3:20   0.00    4.2    89    1.3    31     2.4   99999.0    0.00 
  39    3:30   0.00    3.3    89    0.7    12     2.4   99999.0    0.00 
  39    3:40   0.00    4.2    91    0.8   338     2.4   99999.0    0.00 
  39    3:50   0.00    4.0    90    0.5    97     1.8   99999.0    0.00 
  39    4:00   0.00    4.2    91    0.9    93     2.4   99999.0    0.00 
  39    4:10   0.00    3.2    88    0.6   332     1.8   99999.0    0.00 
  39    4:20   0.00    3.1    90    0.2    50     1.8   99999.0    0.00 
  39    4:30   0.00    2.7    88    0.5   307     1.8   99999.0    0.00 
  39    4:40   0.00    2.4    88    0.4   105     1.8   99999.0    0.00 
  39    4:50   0.00    2.9    89    0.3   103     1.8   99999.0    0.00 
  39    5:00   0.00    1.5    88    0.3   101     2.4   99999.0    0.00 
  39    5:10   0.00    1.7    90    0.0     0     0.0   99999.0    0.00 
  39    5:20   0.00    1.5    89    0.5   124     1.8   99999.0    0.00 
  39    5:30   0.00    1.8    90    0.2   300     1.2   99999.0    0.00 
  39    5:40   0.00    1.2    87    0.7   287     1.8   99999.0    0.00 
  39    5:50   0.00    1.1    88    0.8   128     3.0   99999.0    0.00 
  39    6:00   0.00    0.3    88    0.2   116     1.8   99999.0    0.00 
  39    6:10   0.00    1.2    90    0.2    48     1.8   99999.0    0.00 
  39    6:20   0.00    1.1    87    0.6   237     1.8   99999.0    0.00 
  39    6:30   0.00   -0.3    87    0.2    50     1.2   99999.0    0.00 
  39    6:40   0.00   -0.1    88    0.1    84     1.2   99999.0    0.00 
  39    6:50   0.00    1.0    89    0.5   132     1.8   99999.0    0.00 
  39    7:00   0.00    0.9    88    0.0     0     0.0   99999.0    0.00 
  39    7:10   0.01    1.6    89    0.1   236     1.2   99999.0    0.00 
  39    7:20   0.01    0.6    85    0.2   280     1.2   99999.0    0.00 
  39    7:30   0.01   -0.9    85    0.5   116     1.8   99999.0    0.00 
  39    7:40   0.01    0.4    89    0.5    12     1.8   99999.0    0.00 
  39    7:50   0.06    2.3    86    1.0   343     2.4   99999.0    0.00 
  39    8:00   0.13    4.0    80    1.8   118     2.4   99999.0    0.00 
  39    8:10   0.17    8.2    80    0.1   131     1.2   99999.0    0.00 
  39    8:20   0.22   14.1    73    0.0   290     1.2   99999.0    0.00 
  39    8:30   0.26   15.5    66    0.0     0     0.0   99999.0    0.00 
  39    8:40   0.29   18.0    62    1.0   323     2.4   99999.0    0.00 
  39    8:50   0.32   17.9    53    1.2   208     3.0   99999.0    0.00 
  39    9:00   0.35   14.4    61    0.6   103     2.4   99999.0    0.00 
  39    9:10   0.38   16.4    56    0.9   173     2.4   99999.0    0.00 
  39    9:20   0.41   15.1    62    1.6   134     3.6   99999.0    0.00 

Return to San Antonio, Valles Caldera graphs page.


Western Regional Climate Center,wrcc@dri.edu